Time;durP1;ratioP1;P1;durP2;ratioP2;P2;SDS_P1;SDS_P2;PMS_P1;PMS_P2;Temp;Humidity;BMP_temperature;BMP_pressure;BME280_temperature;BME280_humidity;BME280_pressure;Samples;Min_cycle;Max_cycle;Signal;HPM_P1;HPM_P2
2021/12/06 00:01:56;;;;;;;18.27;7.57;;;;;;;;;;4230532;28;20427;-80
2021/12/06 00:04:03;;;;;;;21.95;7.82;;;;;;;;;;4231025;28;20047;-80
2021/12/06 00:06:04;;;;;;;19.30;9.00;;;;;;;;;;4231439;28;20051;-80
2021/12/06 00:08:06;;;;;;;17.73;7.53;;;;;;;;;;4230946;28;20068;-80
2021/12/06 00:10:08;;;;;;;19.65;7.45;;;;;;;;;;4232683;28;20079;-80
2021/12/06 00:12:10;;;;;;;17.35;7.32;;;;;;;;;;4230996;28;20491;-80
2021/12/06 00:14:11;;;;;;;20.75;8.40;;;;;;;;;;4230521;27;20048;-81
2021/12/06 00:16:17;;;;;;;24.48;8.60;;;;;;;;;;4232557;28;20096;-81
2021/12/06 00:18:20;;;;;;;18.70;7.30;;;;;;;;;;4230954;28;20408;-81
2021/12/06 00:20:21;;;;;;;20.30;8.07;;;;;;;;;;4230812;28;20039;-81
2021/12/06 00:22:23;;;;;;;20.75;8.02;;;;;;;;;;4231260;28;20043;-81
2021/12/06 00:24:24;;;;;;;19.77;7.72;;;;;;;;;;4230865;28;20058;-81
2021/12/06 00:26:26;;;;;;;20.92;7.82;;;;;;;;;;4230806;28;20047;-81
2021/12/06 00:28:27;;;;;;;18.80;7.30;;;;;;;;;;4232062;28;20047;-81
2021/12/06 00:30:28;;;;;;;20.88;7.82;;;;;;;;;;4230686;28;20087;-81
2021/12/06 00:32:30;;;;;;;24.98;8.68;;;;;;;;;;4230830;27;20039;-81
2021/12/06 00:34:34;;;;;;;24.98;8.73;;;;;;;;;;4230015;28;20539;-81
2021/12/06 00:36:39;;;;;;;24.35;8.35;;;;;;;;;;4239288;27;20049;-80
2021/12/06 00:38:41;;;;;;;24.15;8.07;;;;;;;;;;4247620;27;20067;-81
2021/12/06 00:40:49;;;;;;;22.98;8.52;;;;;;;;;;4247036;27;20050;-81
2021/12/06 00:42:50;;;;;;;21.55;7.00;;;;;;;;;;4247858;27;20437;-81
2021/12/06 00:44:52;;;;;;;18.80;7.50;;;;;;;;;;4247532;27;20047;-81
2021/12/06 00:46:53;;;;;;;23.83;8.18;;;;;;;;;;4247505;27;20047;-81
2021/12/06 00:48:54;;;;;;;18.95;7.80;;;;;;;;;;4246994;27;20047;-81
2021/12/06 00:50:56;;;;;;;22.75;8.40;;;;;;;;;;4247512;27;20035;-81
2021/12/06 00:52:57;;;;;;;21.60;8.98;;;;;;;;;;4247992;27;20117;-81
2021/12/06 00:54:58;;;;;;;19.50;7.80;;;;;;;;;;4245899;27;20043;-81
2021/12/06 00:56:59;;;;;;;23.13;7.57;;;;;;;;;;4231646;28;20142;-81
2021/12/06 00:59:01;;;;;;;18.70;8.32;;;;;;;;;;4230548;28;20118;-81
2021/12/06 01:01:04;;;;;;;27.60;8.90;;;;;;;;;;4231761;28;20047;-81
2021/12/06 01:03:06;;;;;;;19.70;7.85;;;;;;;;;;4231925;28;20104;-81
2021/12/06 01:05:07;;;;;;;19.67;7.82;;;;;;;;;;4231383;28;20043;-80
2021/12/06 01:07:09;;;;;;;21.02;7.93;;;;;;;;;;4230459;28;20039;-81
2021/12/06 01:09:11;;;;;;;23.92;8.10;;;;;;;;;;4229543;28;20101;-81
2021/12/06 01:11:13;;;;;;;17.35;7.80;;;;;;;;;;4230218;28;20050;-81
2021/12/06 01:13:15;;;;;;;20.80;8.27;;;;;;;;;;4230132;28;20048;-80
2021/12/06 01:15:17;;;;;;;18.67;8.63;;;;;;;;;;4230261;28;20104;-80
2021/12/06 01:17:19;;;;;;;21.98;8.05;;;;;;;;;;4231419;28;20044;-80
2021/12/06 01:19:20;;;;;;;26.13;10.40;;;;;;;;;;4231041;28;20434;-80
2021/12/06 01:21:38;;;;;;;21.85;8.63;;;;;;;;;;4213118;28;20044;-80
2021/12/06 01:30:30;;;;;;;25.52;9.00;;;;;;;;;;4229841;28;20396;-81
2021/12/06 01:32:37;;;;;;;21.83;8.45;;;;;;;;;;4230462;28;20139;-81
2021/12/06 01:39:18;;;;;;;20.02;7.93;;;;;;;;;;4248532;27;20099;-81
2021/12/06 01:41:20;;;;;;;17.08;7.28;;;;;;;;;;4247002;27;20533;-82
2021/12/06 01:43:22;;;;;;;20.40;8.20;;;;;;;;;;4242124;27;20161;-82
2021/12/06 01:45:23;;;;;;;26.15;8.75;;;;;;;;;;4229536;28;20044;-82
2021/12/06 01:47:29;;;;;;;25.55;8.60;;;;;;;;;;4230107;28;20062;-81
2021/12/06 01:49:33;;;;;;;22.88;7.97;;;;;;;;;;4230819;28;20052;-82
2021/12/06 01:51:35;;;;;;;20.52;8.40;;;;;;;;;;4230275;28;20104;-82
2021/12/06 01:53:36;;;;;;;24.42;8.70;;;;;;;;;;4229328;28;20134;-81
2021/12/06 01:55:39;;;;;;;22.70;9.05;;;;;;;;;;4229533;28;20051;-82
2021/12/06 01:57:41;;;;;;;22.42;9.18;;;;;;;;;;4229528;28;20122;-81
2021/12/06 01:59:43;;;;;;;22.17;8.73;;;;;;;;;;4231272;28;20039;-82
2021/12/06 02:01:44;;;;;;;25.23;9.43;;;;;;;;;;4229868;28;20047;-82
2021/12/06 02:03:45;;;;;;;25.63;9.18;;;;;;;;;;4229522;28;20169;-82
2021/12/06 02:05:48;;;;;;;24.42;9.07;;;;;;;;;;4229998;28;20108;-82
2021/12/06 02:07:49;;;;;;;25.10;9.27;;;;;;;;;;4229637;28;20104;-82
2021/12/06 02:09:51;;;;;;;23.58;9.07;;;;;;;;;;4229356;28;20051;-82
2021/12/06 02:11:53;;;;;;;27.55;10.27;;;;;;;;;;4230563;28;20173;-81
2021/12/06 02:14:03;;;;;;;22.48;9.35;;;;;;;;;;4229357;28;20254;-82
2021/12/06 02:16:05;;;;;;;26.38;9.10;;;;;;;;;;4236977;28;20077;-82
2021/12/06 02:18:14;;;;;;;22.52;8.60;;;;;;;;;;4245391;28;20521;-81
2021/12/06 02:20:24;;;;;;;27.27;11.00;;;;;;;;;;4247128;27;20043;-81
2021/12/06 02:22:28;;;;;;;25.33;9.43;;;;;;;;;;4246739;28;20051;-82
2021/12/06 02:24:34;;;;;;;24.80;9.30;;;;;;;;;;4248263;28;20128;-82
2021/12/06 02:26:40;;;;;;;25.83;9.65;;;;;;;;;;4246615;28;20051;-81
2021/12/06 02:28:41;;;;;;;23.80;8.82;;;;;;;;;;4245710;28;20482;-82
2021/12/06 02:30:42;;;;;;;23.08;8.93;;;;;;;;;;4245955;28;20055;-82
2021/12/06 02:32:44;;;;;;;29.70;8.82;;;;;;;;;;4228782;28;20126;-81
2021/12/06 02:34:47;;;;;;;28.20;9.25;;;;;;;;;;4248447;27;20119;-81
2021/12/06 02:36:48;;;;;;;26.55;9.73;;;;;;;;;;4239301;27;20396;-81
2021/12/06 02:38:49;;;;;;;27.80;9.70;;;;;;;;;;4215232;28;20431;-81
2021/12/06 02:40:51;;;;;;;28.33;9.18;;;;;;;;;;4233199;28;20048;-81
2021/12/06 02:42:53;;;;;;;27.00;9.90;;;;;;;;;;4234460;28;20094;-81
2021/12/06 02:44:54;;;;;;;25.33;9.80;;;;;;;;;;4233014;28;20040;-81
2021/12/06 02:46:56;;;;;;;24.95;9.43;;;;;;;;;;4232635;28;20066;-81
2021/12/06 02:48:58;;;;;;;29.25;9.25;;;;;;;;;;4233421;28;20036;-81
2021/12/06 02:51:02;;;;;;;25.60;9.30;;;;;;;;;;4232095;28;20482;-82
2021/12/06 02:53:05;;;;;;;25.27;9.38;;;;;;;;;;4233770;28;20091;-82
2021/12/06 02:55:22;;;;;;;26.70;9.50;;;;;;;;;;4231791;28;20491;-82
2021/12/06 02:57:33;;;;;;;27.50;8.65;;;;;;;;;;4233260;28;20140;-82
2021/12/06 02:59:35;;;;;;;22.42;8.32;;;;;;;;;;4231566;28;20044;-81
2021/12/06 03:01:42;;;;;;;26.33;8.30;;;;;;;;;;4233328;28;20043;-81
2021/12/06 03:03:44;;;;;;;27.10;9.02;;;;;;;;;;4232027;28;20048;-81
2021/12/06 03:05:49;;;;;;;25.73;10.10;;;;;;;;;;4231943;28;20050;-81
2021/12/06 03:07:57;;;;;;;27.33;9.40;;;;;;;;;;4233177;28;20051;-81
2021/12/06 03:09:58;;;;;;;28.42;9.70;;;;;;;;;;4232033;28;20131;-81
2021/12/06 03:12:01;;;;;;;24.50;9.75;;;;;;;;;;4232846;28;20053;-81
2021/12/06 03:14:04;;;;;;;27.95;9.68;;;;;;;;;;4233321;28;20051;-81
2021/12/06 03:16:06;;;;;;;29.70;10.07;;;;;;;;;;4233164;28;20110;-81
2021/12/06 03:18:07;;;;;;;30.90;9.43;;;;;;;;;;4231809;28;20086;-81
2021/12/06 03:20:13;;;;;;;30.27;9.57;;;;;;;;;;4231020;28;20063;-81
2021/12/06 03:22:16;;;;;;;25.25;9.13;;;;;;;;;;4232972;28;20519;-81
2021/12/06 03:24:17;;;;;;;24.83;7.70;;;;;;;;;;4233270;28;20051;-81
2021/12/06 03:26:18;;;;;;;29.05;8.98;;;;;;;;;;4231376;28;20495;-81
2021/12/06 03:28:20;;;;;;;25.42;8.68;;;;;;;;;;4231554;28;20039;-81
2021/12/06 03:30:22;;;;;;;28.17;9.15;;;;;;;;;;4230994;28;20056;-81
2021/12/06 03:32:24;;;;;;;27.90;9.55;;;;;;;;;;4233044;28;20104;-81
2021/12/06 03:34:26;;;;;;;31.38;10.40;;;;;;;;;;4233151;28;20044;-81
2021/12/06 03:36:29;;;;;;;28.63;9.88;;;;;;;;;;4238550;27;20126;-81
2021/12/06 03:38:31;;;;;;;25.13;9.73;;;;;;;;;;4249982;27;20131;-81
2021/12/06 03:40:32;;;;;;;29.48;10.35;;;;;;;;;;4248394;27;20073;-81
2021/12/06 03:42:34;;;;;;;31.58;9.25;;;;;;;;;;4248628;27;20047;-81
2021/12/06 03:44:35;;;;;;;28.60;8.75;;;;;;;;;;4232639;27;20051;-81
2021/12/06 03:46:37;;;;;;;29.25;9.90;;;;;;;;;;4231565;28;20054;-82
2021/12/06 03:48:38;;;;;;;28.65;9.50;;;;;;;;;;4232360;28;20050;-82
2021/12/06 03:50:42;;;;;;;31.80;10.55;;;;;;;;;;4230913;28;20052;-82
2021/12/06 03:52:43;;;;;;;28.63;8.95;;;;;;;;;;4231043;28;20055;-82
2021/12/06 03:54:46;;;;;;;30.73;10.05;;;;;;;;;;4231119;28;20083;-82
2021/12/06 03:56:48;;;;;;;30.15;9.45;;;;;;;;;;4231110;28;20530;-82
2021/12/06 03:58:49;;;;;;;29.13;10.70;;;;;;;;;;4232354;28;20051;-82
2021/12/06 04:00:51;;;;;;;30.73;10.00;;;;;;;;;;4234135;27;20039;-82
2021/12/06 04:02:52;;;;;;;30.73;9.80;;;;;;;;;;4247974;27;20053;-81
2021/12/06 04:04:54;;;;;;;32.17;10.30;;;;;;;;;;4248212;27;20047;-81
2021/12/06 04:06:55;;;;;;;24.98;9.82;;;;;;;;;;4249376;27;20051;-81
2021/12/06 04:09:04;;;;;;;26.63;8.80;;;;;;;;;;4230839;28;20051;-81
2021/12/06 04:11:05;;;;;;;30.48;10.35;;;;;;;;;;4249659;27;20118;-81
2021/12/06 04:13:07;;;;;;;27.42;9.05;;;;;;;;;;4248018;27;21224;-81
2021/12/06 04:15:09;;;;;;;26.42;9.63;;;;;;;;;;4249043;27;20061;-81
2021/12/06 04:17:13;;;;;;;29.17;9.80;;;;;;;;;;4248350;27;20051;-81
2021/12/06 04:19:14;;;;;;;26.42;9.13;;;;;;;;;;4247267;27;20047;-81
2021/12/06 04:21:17;;;;;;;32.95;10.68;;;;;;;;;;4229945;28;20408;-81
2021/12/06 04:23:19;;;;;;;32.72;10.00;;;;;;;;;;4247405;27;20103;-81
2021/12/06 04:25:21;;;;;;;30.15;10.20;;;;;;;;;;4246925;27;20863;-81
2021/12/06 04:27:22;;;;;;;32.63;10.38;;;;;;;;;;4248598;27;20104;-81
2021/12/06 04:29:23;;;;;;;28.48;9.68;;;;;;;;;;4247425;27;20304;-81
2021/12/06 04:31:24;;;;;;;28.10;9.25;;;;;;;;;;4249066;27;20043;-81
2021/12/06 04:33:25;;;;;;;33.03;11.35;;;;;;;;;;4230220;28;20039;-81
2021/12/06 04:35:28;;;;;;;29.08;9.32;;;;;;;;;;4230950;28;20048;-81
2021/12/06 04:37:30;;;;;;;30.73;10.00;;;;;;;;;;4232368;27;20048;-81
2021/12/06 04:39:32;;;;;;;27.80;8.85;;;;;;;;;;4231914;28;20535;-81
2021/12/06 04:41:34;;;;;;;30.50;8.65;;;;;;;;;;4214027;28;20040;-81
2021/12/06 04:43:35;;;;;;;32.90;10.32;;;;;;;;;;4230684;28;20396;-81
2021/12/06 04:45:36;;;;;;;26.52;9.80;;;;;;;;;;4230400;28;20589;-81
2021/12/06 04:47:37;;;;;;;32.88;10.32;;;;;;;;;;4231202;28;20043;-81
2021/12/06 04:49:39;;;;;;;34.55;10.43;;;;;;;;;;4213348;28;20105;-81
2021/12/06 04:51:42;;;;;;;31.00;10.25;;;;;;;;;;4232112;28;20162;-81
2021/12/06 04:53:43;;;;;;;35.75;12.00;;;;;;;;;;4213714;28;20105;-81
2021/12/06 04:55:49;;;;;;;30.23;10.45;;;;;;;;;;4231445;28;20067;-81
2021/12/06 04:57:50;;;;;;;29.52;10.02;;;;;;;;;;4230355;28;20180;-81
2021/12/06 04:59:58;;;;;;;32.25;10.70;;;;;;;;;;4230170;28;20047;-81
2021/12/06 05:02:06;;;;;;;32.33;9.90;;;;;;;;;;4230527;28;20053;-81
2021/12/06 05:04:10;;;;;;;33.40;9.90;;;;;;;;;;4213819;28;20495;-81
2021/12/06 05:06:19;;;;;;;30.23;9.68;;;;;;;;;;4231403;28;20040;-81
2021/12/06 05:08:25;;;;;;;29.05;9.77;;;;;;;;;;4230585;28;20036;-81
2021/12/06 05:10:27;;;;;;;31.80;11.05;;;;;;;;;;4229926;28;20061;-81
2021/12/06 05:12:29;;;;;;;36.95;9.93;;;;;;;;;;4229841;28;20061;-81
2021/12/06 05:14:30;;;;;;;34.45;10.75;;;;;;;;;;4229846;28;20416;-81
2021/12/06 05:16:33;;;;;;;37.83;11.50;;;;;;;;;;4230425;28;20039;-81
2021/12/06 05:18:34;;;;;;;31.35;10.27;;;;;;;;;;4231389;28;20055;-81
2021/12/06 05:20:36;;;;;;;40.75;12.20;;;;;;;;;;4231140;28;20129;-81
2021/12/06 05:22:37;;;;;;;31.60;10.50;;;;;;;;;;4230339;28;20399;-81
2021/12/06 05:24:38;;;;;;;32.40;10.00;;;;;;;;;;4230165;28;20036;-81
2021/12/06 05:26:40;;;;;;;35.15;10.20;;;;;;;;;;4247228;27;20044;-81
2021/12/06 05:28:43;;;;;;;33.03;11.32;;;;;;;;;;4247178;27;20135;-81
2021/12/06 05:30:48;;;;;;;33.03;10.18;;;;;;;;;;4246788;27;20442;-81
2021/12/06 05:32:49;;;;;;;36.22;9.75;;;;;;;;;;4248090;27;20047;-81
2021/12/06 05:34:57;;;;;;;32.83;12.40;;;;;;;;;;4248120;27;20043;-81
2021/12/06 05:36:58;;;;;;;42.88;12.32;;;;;;;;;;4235888;27;20044;-81
2021/12/06 05:38:59;;;;;;;35.30;10.75;;;;;;;;;;4230996;28;20040;-81
2021/12/06 05:41:00;;;;;;;32.67;9.25;;;;;;;;;;4213028;28;20081;-81
2021/12/06 05:43:02;;;;;;;30.00;9.75;;;;;;;;;;4230068;28;20074;-81
2021/12/06 05:45:04;;;;;;;33.70;10.18;;;;;;;;;;4230900;28;20044;-81
2021/12/06 05:47:06;;;;;;;26.65;9.25;;;;;;;;;;4230955;28;20098;-81
2021/12/06 05:49:07;;;;;;;38.42;11.63;;;;;;;;;;4231108;28;20082;-82
2021/12/06 05:51:08;;;;;;;33.72;10.10;;;;;;;;;;4230341;28;20138;-81
2021/12/06 05:53:10;;;;;;;40.78;11.50;;;;;;;;;;4230784;28;20505;-81
2021/12/06 05:55:12;;;;;;;34.38;10.43;;;;;;;;;;4212506;28;20047;-81
2021/12/06 05:57:14;;;;;;;33.05;10.48;;;;;;;;;;4230797;28;20093;-81
2021/12/06 05:59:16;;;;;;;33.65;9.48;;;;;;;;;;4229865;28;20086;-81
2021/12/06 06:01:17;;;;;;;37.75;10.88;;;;;;;;;;4230290;28;20042;-81
2021/12/06 06:03:18;;;;;;;35.28;10.27;;;;;;;;;;4229792;28;20048;-80
2021/12/06 06:05:20;;;;;;;32.38;10.05;;;;;;;;;;4229901;28;20050;-80
2021/12/06 06:07:21;;;;;;;32.13;10.73;;;;;;;;;;4240479;28;20114;-80
2021/12/06 06:09:23;;;;;;;33.40;9.57;;;;;;;;;;4241558;27;20073;-81
2021/12/06 06:11:26;;;;;;;30.83;9.43;;;;;;;;;;4234626;28;20044;-81
2021/12/06 06:13:28;;;;;;;33.03;9.50;;;;;;;;;;4243328;27;20043;-80
2021/12/06 06:15:29;;;;;;;31.38;9.80;;;;;;;;;;4250105;27;20483;-80
2021/12/06 06:17:39;;;;;;;28.85;9.50;;;;;;;;;;4251445;27;20054;-80
2021/12/06 06:19:46;;;;;;;32.65;10.35;;;;;;;;;;4243630;27;20047;-80
2021/12/06 06:21:48;;;;;;;32.25;9.93;;;;;;;;;;4234414;28;20078;-80
2021/12/06 06:23:49;;;;;;;28.13;9.70;;;;;;;;;;4235036;28;20448;-80
2021/12/06 06:25:51;;;;;;;31.83;10.20;;;;;;;;;;4236107;27;20054;-81
2021/12/06 06:27:53;;;;;;;28.85;8.73;;;;;;;;;;4234368;28;20043;-81
2021/12/06 06:29:54;;;;;;;28.25;8.85;;;;;;;;;;4232393;28;20048;-81
2021/12/06 06:31:56;;;;;;;29.80;9.48;;;;;;;;;;4234313;28;20077;-81
2021/12/06 06:33:57;;;;;;;33.88;9.93;;;;;;;;;;4233475;28;20044;-81
2021/12/06 06:35:59;;;;;;;28.08;10.40;;;;;;;;;;4236961;27;20039;-81
2021/12/06 06:38:01;;;;;;;30.83;11.07;;;;;;;;;;4250125;27;20043;-81
2021/12/06 06:40:04;;;;;;;33.88;10.20;;;;;;;;;;4249500;27;20051;-81
2021/12/06 06:42:05;;;;;;;31.30;9.85;;;;;;;;;;4250126;27;20051;-81
2021/12/06 06:44:07;;;;;;;29.70;8.77;;;;;;;;;;4249987;27;20087;-81
2021/12/06 06:46:08;;;;;;;29.05;9.27;;;;;;;;;;4249882;27;20426;-81
2021/12/06 06:48:09;;;;;;;31.63;9.32;;;;;;;;;;4250014;27;20431;-81
2021/12/06 06:50:10;;;;;;;37.30;10.35;;;;;;;;;;4236633;27;20582;-81
2021/12/06 06:52:11;;;;;;;31.23;9.23;;;;;;;;;;4231808;28;20083;-81
2021/12/06 06:54:13;;;;;;;34.75;10.70;;;;;;;;;;4242701;27;20750;-81
2021/12/06 06:56:14;;;;;;;31.90;9.20;;;;;;;;;;4230522;28;20059;-80
2021/12/06 06:58:15;;;;;;;30.70;10.10;;;;;;;;;;4245681;27;20047;-80
2021/12/06 07:00:22;;;;;;;33.75;11.07;;;;;;;;;;4232767;28;20522;-81
2021/12/06 07:02:24;;;;;;;34.47;9.90;;;;;;;;;;4232736;28;20044;-81
2021/12/06 07:04:26;;;;;;;34.90;10.23;;;;;;;;;;4239468;27;20103;-81
2021/12/06 07:06:28;;;;;;;32.22;10.23;;;;;;;;;;4249376;27;20047;-81
2021/12/06 07:08:29;;;;;;;30.73;8.77;;;;;;;;;;4250295;27;20075;-81
2021/12/06 07:10:31;;;;;;;31.10;9.98;;;;;;;;;;4249560;27;20570;-81
2021/12/06 07:12:34;;;;;;;30.48;9.70;;;;;;;;;;4238142;27;20123;-82
2021/12/06 07:14:37;;;;;;;34.78;10.52;;;;;;;;;;4215615;28;20036;-81
2021/12/06 07:16:38;;;;;;;30.60;9.88;;;;;;;;;;4231739;28;20057;-82
2021/12/06 07:18:39;;;;;;;33.42;10.13;;;;;;;;;;4233642;28;20372;-82
2021/12/06 07:20:40;;;;;;;34.58;9.77;;;;;;;;;;4238732;27;20114;-81
2021/12/06 07:22:43;;;;;;;29.27;9.13;;;;;;;;;;4249926;27;20047;-81
2021/12/06 07:24:45;;;;;;;30.83;9.07;;;;;;;;;;4243401;27;20059;-82
2021/12/06 07:26:46;;;;;;;36.42;9.88;;;;;;;;;;4215817;28;20063;-82
2021/12/06 07:28:48;;;;;;;32.15;10.68;;;;;;;;;;4232372;28;20111;-81
2021/12/06 07:30:50;;;;;;;30.00;9.45;;;;;;;;;;4249695;27;20047;-81
2021/12/06 07:32:52;;;;;;;31.08;9.40;;;;;;;;;;4231531;28;20047;-81
2021/12/06 07:34:55;;;;;;;25.52;8.27;;;;;;;;;;4249924;27;20039;-82
2021/12/06 07:36:57;;;;;;;25.40;9.48;;;;;;;;;;4244325;27;20057;-82
2021/12/06 07:38:59;;;;;;;34.20;9.27;;;;;;;;;;4267353;27;20122;-82
2021/12/06 07:41:00;;;;;;;34.17;9.60;;;;;;;;;;4256712;27;20051;-82
2021/12/06 07:43:01;;;;;;;32.10;11.40;;;;;;;;;;4232063;28;20603;-82
2021/12/06 07:45:06;;;;;;;30.02;9.20;;;;;;;;;;4250734;27;20066;-82
2021/12/06 07:47:08;;;;;;;32.35;9.35;;;;;;;;;;4232039;28;20047;-81
2021/12/06 07:49:09;;;;;;;31.70;10.40;;;;;;;;;;4252191;27;20070;-81
2021/12/06 07:51:10;;;;;;;30.92;9.98;;;;;;;;;;4235950;27;20039;-82
2021/12/06 07:53:11;;;;;;;32.78;10.70;;;;;;;;;;4244679;27;20039;-81
2021/12/06 07:55:14;;;;;;;41.78;11.32;;;;;;;;;;4232426;28;20043;-82
2021/12/06 07:57:15;;;;;;;31.73;11.57;;;;;;;;;;4249468;27;20047;-82
2021/12/06 07:59:16;;;;;;;34.33;10.02;;;;;;;;;;4219232;28;20059;-82
2021/12/06 08:01:17;;;;;;;41.30;11.48;;;;;;;;;;4232490;28;20043;-82
2021/12/06 08:03:21;;;;;;;40.80;10.65;;;;;;;;;;4249894;27;20046;-82
2021/12/06 08:05:30;;;;;;;35.10;11.85;;;;;;;;;;4231453;28;20109;-82
2021/12/06 08:07:32;;;;;;;28.15;10.32;;;;;;;;;;4214743;28;20468;-82
2021/12/06 08:09:33;;;;;;;31.58;9.88;;;;;;;;;;4250608;27;20627;-81
2021/12/06 08:11:35;;;;;;;31.42;9.95;;;;;;;;;;4249464;27;20069;-81
2021/12/06 08:13:39;;;;;;;34.25;10.13;;;;;;;;;;4250378;27;20372;-81
2021/12/06 08:15:40;;;;;;;40.58;11.55;;;;;;;;;;4231452;28;20077;-83
2021/12/06 08:17:41;;;;;;;32.85;11.07;;;;;;;;;;4249936;27;20035;-82
2021/12/06 08:19:43;;;;;;;33.80;10.90;;;;;;;;;;4221142;28;20465;-82
2021/12/06 08:21:44;;;;;;;39.80;11.55;;;;;;;;;;4248914;27;20051;-82
2021/12/06 08:23:46;;;;;;;33.30;9.80;;;;;;;;;;4249007;27;20102;-81
2021/12/06 08:25:48;;;;;;;40.63;12.15;;;;;;;;;;4249116;27;20050;-81
2021/12/06 08:27:51;;;;;;;37.97;11.18;;;;;;;;;;4249126;27;20054;-81
2021/12/06 08:29:52;;;;;;;36.13;10.23;;;;;;;;;;4250747;27;20063;-81
2021/12/06 08:31:53;;;;;;;41.03;11.85;;;;;;;;;;4251326;27;20073;-80
2021/12/06 08:33:54;;;;;;;37.20;11.70;;;;;;;;;;4248637;27;20039;-81
2021/12/06 08:35:58;;;;;;;38.15;12.10;;;;;;;;;;4233124;28;20054;-81
2021/12/06 08:38:00;;;;;;;36.97;11.07;;;;;;;;;;4233527;28;20590;-81
2021/12/06 08:40:02;;;;;;;40.83;11.35;;;;;;;;;;4233181;28;20115;-81
2021/12/06 08:42:04;;;;;;;40.78;11.30;;;;;;;;;;4216344;28;20048;-82
2021/12/06 08:44:06;;;;;;;41.15;11.38;;;;;;;;;;4231338;28;20135;-82
2021/12/06 08:46:10;;;;;;;43.45;10.85;;;;;;;;;;4230341;28;20504;-81
2021/12/06 08:48:12;;;;;;;41.22;10.80;;;;;;;;;;4231369;28;20102;-82
2021/12/06 08:50:17;;;;;;;41.45;11.70;;;;;;;;;;4231383;28;20043;-82
2021/12/06 08:52:19;;;;;;;39.75;11.27;;;;;;;;;;4232318;28;20437;-82
2021/12/06 08:54:24;;;;;;;36.65;11.52;;;;;;;;;;4230312;28;20043;-82
2021/12/06 08:56:31;;;;;;;35.45;10.20;;;;;;;;;;4230966;28;20101;-82
2021/12/06 08:58:33;;;;;;;43.13;11.43;;;;;;;;;;4230904;28;20082;-82
2021/12/06 09:00:35;;;;;;;39.75;10.50;;;;;;;;;;4231175;28;20043;-82
2021/12/06 09:02:38;;;;;;;41.42;10.10;;;;;;;;;;4232600;28;20525;-82
2021/12/06 09:04:40;;;;;;;34.20;10.55;;;;;;;;;;4230830;28;20047;-82
2021/12/06 09:06:44;;;;;;;43.10;12.45;;;;;;;;;;4231954;28;20126;-82
2021/12/06 09:08:46;;;;;;;40.38;11.32;;;;;;;;;;4231299;28;20055;-81
2021/12/06 09:10:51;;;;;;;39.83;9.98;;;;;;;;;;4232145;28;20044;-82
2021/12/06 09:12:53;;;;;;;33.83;10.65;;;;;;;;;;4232966;28;20082;-82
2021/12/06 09:14:56;;;;;;;38.75;12.70;;;;;;;;;;4232804;28;20075;-82
2021/12/06 09:16:58;;;;;;;37.65;11.07;;;;;;;;;;4234075;28;20043;-81
2021/12/06 09:19:01;;;;;;;43.78;11.40;;;;;;;;;;4230335;28;20491;-82
2021/12/06 09:21:03;;;;;;;41.05;12.07;;;;;;;;;;4234018;27;20363;-82
2021/12/06 09:23:05;;;;;;;36.95;10.63;;;;;;;;;;4228881;28;20047;-82
2021/12/06 09:25:08;;;;;;;37.42;10.20;;;;;;;;;;4231641;28;20138;-82
2021/12/06 09:27:10;;;;;;;36.20;11.77;;;;;;;;;;4213954;28;20132;-82
2021/12/06 09:29:11;;;;;;;37.88;11.35;;;;;;;;;;4233777;27;20048;-82
2021/12/06 09:31:15;;;;;;;34.13;9.90;;;;;;;;;;4249233;27;20451;-81
2021/12/06 09:33:17;;;;;;;34.67;9.55;;;;;;;;;;4249441;27;20051;-82
2021/12/06 09:35:23;;;;;;;39.03;10.60;;;;;;;;;;4230158;28;20044;-81
2021/12/06 09:37:26;;;;;;;31.80;10.50;;;;;;;;;;4248520;27;20047;-81
2021/12/06 09:39:28;;;;;;;33.75;10.35;;;;;;;;;;4213229;28;20558;-81
2021/12/06 09:41:30;;;;;;;40.75;10.43;;;;;;;;;;4249617;27;20043;-81
2021/12/06 09:43:31;;;;;;;26.85;9.43;;;;;;;;;;4230222;28;20144;-82
2021/12/06 09:45:33;;;;;;;31.23;9.73;;;;;;;;;;4230552;28;20040;-82
2021/12/06 09:47:35;;;;;;;31.88;9.80;;;;;;;;;;4229789;28;20055;-82
2021/12/06 09:49:36;;;;;;;30.05;10.05;;;;;;;;;;4229655;28;20115;-82
2021/12/06 09:51:40;;;;;;;32.70;8.95;;;;;;;;;;4212170;28;20396;-81
2021/12/06 09:53:42;;;;;;;30.02;9.93;;;;;;;;;;4229569;28;20059;-81
2021/12/06 09:55:45;;;;;;;30.23;8.73;;;;;;;;;;4248188;28;20043;-81
2021/12/06 09:57:47;;;;;;;26.92;9.20;;;;;;;;;;4229868;28;20044;-82
2021/12/06 09:59:49;;;;;;;33.88;9.55;;;;;;;;;;4248286;28;20122;-82
2021/12/06 10:01:56;;;;;;;30.75;9.35;;;;;;;;;;4229974;28;20555;-82
2021/12/06 10:03:58;;;;;;;29.65;9.07;;;;;;;;;;4229902;28;20044;-82
2021/12/06 10:06:04;;;;;;;35.00;9.85;;;;;;;;;;4229632;28;20482;-82
2021/12/06 10:08:05;;;;;;;27.50;9.65;;;;;;;;;;4230204;28;20051;-81
2021/12/06 10:10:08;;;;;;;27.45;8.82;;;;;;;;;;4213245;28;20056;-81
2021/12/06 10:12:11;;;;;;;28.42;8.43;;;;;;;;;;4213343;28;20091;-81
2021/12/06 10:14:13;;;;;;;28.50;8.32;;;;;;;;;;4248242;28;20066;-82
2021/12/06 10:16:14;;;;;;;24.05;8.40;;;;;;;;;;4212949;28;20476;-82
2021/12/06 10:18:18;;;;;;;33.92;8.98;;;;;;;;;;4229054;28;20067;-82
2021/12/06 10:20:19;;;;;;;30.20;8.57;;;;;;;;;;4248145;28;20043;-82
2021/12/06 10:22:21;;;;;;;29.25;8.00;;;;;;;;;;4228008;28;20044;-82
2021/12/06 10:24:27;;;;;;;28.73;7.93;;;;;;;;;;4233805;28;20044;-81
2021/12/06 10:26:29;;;;;;;26.45;7.93;;;;;;;;;;4230322;28;20052;-81
2021/12/06 10:28:31;;;;;;;26.20;7.65;;;;;;;;;;4250351;27;20504;-82
2021/12/06 10:30:38;;;;;;;29.73;9.30;;;;;;;;;;4247516;28;20094;-82
2021/12/06 10:32:41;;;;;;;23.80;7.38;;;;;;;;;;4250604;28;20065;-82
2021/12/06 10:34:54;;;;;;;30.40;8.27;;;;;;;;;;4231689;28;20047;-81
2021/12/06 10:36:56;;;;;;;24.30;8.57;;;;;;;;;;4249873;28;20486;-81
2021/12/06 10:39:04;;;;;;;25.77;8.10;;;;;;;;;;4213124;28;20062;-81
2021/12/06 10:41:13;;;;;;;28.80;8.65;;;;;;;;;;4231409;28;20086;-81
2021/12/06 10:43:14;;;;;;;27.45;8.50;;;;;;;;;;4230570;28;20039;-82
2021/12/06 10:45:18;;;;;;;28.25;8.90;;;;;;;;;;4248382;28;20039;-82
2021/12/06 10:47:20;;;;;;;29.05;9.45;;;;;;;;;;4229630;28;20043;-82
2021/12/06 10:49:24;;;;;;;31.65;9.27;;;;;;;;;;4229753;28;20039;-82
2021/12/06 10:51:25;;;;;;;22.17;7.85;;;;;;;;;;4229725;28;20568;-82
2021/12/06 10:53:49;;;;;;;27.30;8.43;;;;;;;;;;4229360;28;20557;-82
2021/12/06 10:55:52;;;;;;;23.77;8.32;;;;;;;;;;4233251;28;20052;-81
2021/12/06 10:57:55;;;;;;;26.63;8.55;;;;;;;;;;4216536;28;20047;-82
2021/12/06 10:59:56;;;;;;;28.25;9.13;;;;;;;;;;4251277;27;20043;-82
2021/12/06 11:02:04;;;;;;;28.80;8.27;;;;;;;;;;4216055;28;20111;-82
2021/12/06 11:04:08;;;;;;;30.00;8.02;;;;;;;;;;4232364;28;20588;-82
2021/12/06 11:06:15;;;;;;;27.88;9.70;;;;;;;;;;4216268;28;20055;-82
2021/12/06 11:08:19;;;;;;;25.25;8.15;;;;;;;;;;4251334;27;20432;-82
2021/12/06 11:10:23;;;;;;;25.10;8.27;;;;;;;;;;4251095;27;20039;-81
2021/12/06 11:12:26;;;;;;;23.50;8.35;;;;;;;;;;4215849;28;20044;-82
2021/12/06 11:14:30;;;;;;;26.92;7.70;;;;;;;;;;4232457;28;20050;-82
2021/12/06 11:16:34;;;;;;;19.90;7.03;;;;;;;;;;4215503;28;20107;-82
2021/12/06 11:18:41;;;;;;;20.02;6.68;;;;;;;;;;4231897;28;20096;-82
2021/12/06 11:20:48;;;;;;;29.90;7.82;;;;;;;;;;4215659;28;20040;-82
2021/12/06 11:22:51;;;;;;;24.65;7.72;;;;;;;;;;4231414;28;20048;-82
2021/12/06 11:24:54;;;;;;;22.13;7.28;;;;;;;;;;4266915;27;20486;-82
2021/12/06 11:26:58;;;;;;;24.73;8.18;;;;;;;;;;4249180;27;20088;-82
2021/12/06 11:29:07;;;;;;;28.35;7.63;;;;;;;;;;4257505;27;20495;-82
2021/12/06 11:31:09;;;;;;;21.85;7.53;;;;;;;;;;4250800;27;20055;-82
2021/12/06 11:33:25;;;;;;;32.17;8.27;;;;;;;;;;4232284;28;20059;-82
2021/12/06 11:35:30;;;;;;;25.73;8.82;;;;;;;;;;4231967;28;20047;-82
2021/12/06 11:37:32;;;;;;;33.33;8.57;;;;;;;;;;4231955;28;20571;-82
2021/12/06 11:39:34;;;;;;;27.55;9.82;;;;;;;;;;4250878;27;20046;-81
2021/12/06 11:41:36;;;;;;;27.98;8.98;;;;;;;;;;4250381;27;20077;-81
2021/12/06 11:43:39;;;;;;;27.77;8.60;;;;;;;;;;4232327;28;20101;-81
2021/12/06 11:45:43;;;;;;;28.20;9.60;;;;;;;;;;4215224;28;20099;-82
2021/12/06 11:47:45;;;;;;;30.50;9.45;;;;;;;;;;4250566;27;20069;-82
2021/12/06 11:49:52;;;;;;;32.75;9.15;;;;;;;;;;4250450;27;20073;-82
2021/12/06 11:51:54;;;;;;;35.13;10.52;;;;;;;;;;4216697;28;20549;-82
2021/12/06 11:53:58;;;;;;;32.45;9.82;;;;;;;;;;4249213;27;20134;-82
2021/12/06 11:56:01;;;;;;;30.15;9.80;;;;;;;;;;4248694;27;20099;-82
2021/12/06 11:58:03;;;;;;;32.72;10.50;;;;;;;;;;4249026;27;20449;-82
2021/12/06 12:00:10;;;;;;;35.47;10.07;;;;;;;;;;4266939;27;20113;-82
2021/12/06 12:02:11;;;;;;;33.85;10.65;;;;;;;;;;4231979;28;20174;-82
2021/12/06 12:04:25;;;;;;;29.25;9.55;;;;;;;;;;4248145;27;20525;-82
2021/12/06 12:06:33;;;;;;;27.85;9.15;;;;;;;;;;4248556;27;20039;-82
2021/12/06 12:08:35;;;;;;;24.95;7.80;;;;;;;;;;4248472;27;20054;-81
2021/12/06 12:10:56;;;;;;;28.88;8.82;;;;;;;;;;4267036;27;20050;-82
2021/12/06 12:12:58;;;;;;;20.95;7.18;;;;;;;;;;4248745;27;20499;-82
2021/12/06 12:15:01;;;;;;;30.77;9.98;;;;;;;;;;4267093;27;20103;-82